createdAt,value
2019-03-15T00:00:28.459Z,8.60
2019-03-15T00:03:09.544Z,9.30
2019-03-15T00:05:50.398Z,10.10
2019-03-15T00:08:31.382Z,10.00
2019-03-15T00:11:11.829Z,10.00
2019-03-15T00:13:52.690Z,10.50
2019-03-15T00:16:33.503Z,9.70
2019-03-15T00:19:13.868Z,8.90
2019-03-15T00:21:54.434Z,9.30
2019-03-15T00:24:35.384Z,10.30
2019-03-15T00:27:16.249Z,10.00
2019-03-15T00:29:56.493Z,10.60
2019-03-15T00:32:37.393Z,11.40
2019-03-15T00:35:18.366Z,11.20
2019-03-15T00:37:59.734Z,11.10
2019-03-15T00:40:40.478Z,10.30
2019-03-15T00:43:21.422Z,10.90
2019-03-15T00:46:01.895Z,10.50
2019-03-15T00:48:42.438Z,10.00
2019-03-15T00:51:23.117Z,9.80
2019-03-15T00:54:04.355Z,9.70
2019-03-15T00:56:45.030Z,10.00
2019-03-15T00:59:25.763Z,11.40
2019-03-15T01:02:06.734Z,10.20
2019-03-15T01:04:47.159Z,9.70
2019-03-15T01:07:27.978Z,10.50
2019-03-15T01:10:08.910Z,11.10
2019-03-15T01:12:49.768Z,11.70
2019-03-15T01:15:30.510Z,11.10
2019-03-15T01:18:11.169Z,11.00
2019-03-15T01:20:52.221Z,11.40
2019-03-15T01:23:32.857Z,11.30
2019-03-15T01:26:13.742Z,11.10
2019-03-15T01:28:54.522Z,9.90
2019-03-15T01:31:35.430Z,10.30
2019-03-15T01:34:15.765Z,10.20
2019-03-15T01:36:56.830Z,9.90
2019-03-15T01:39:37.557Z,11.00
2019-03-15T01:42:18.177Z,10.80
2019-03-15T01:44:59.206Z,10.30
2019-03-15T01:47:39.645Z,10.60
2019-03-15T01:50:20.225Z,9.90
2019-03-15T01:53:00.877Z,11.20
2019-03-15T01:55:41.667Z,11.00
2019-03-15T01:58:22.680Z,10.10
2019-03-15T02:01:04.543Z,10.30
2019-03-15T02:03:45.826Z,9.80
2019-03-15T02:06:26.208Z,9.50
2019-03-15T02:09:09.327Z,10.20
2019-03-15T02:11:50.314Z,10.80
2019-03-15T02:14:31.377Z,10.50
2019-03-15T02:17:12.214Z,11.10
2019-03-15T02:19:53.273Z,12.00
2019-03-15T02:22:34.428Z,10.90
2019-03-15T02:25:15.306Z,11.20
2019-03-15T02:27:56.570Z,10.40
2019-03-15T02:30:37.522Z,9.90
2019-03-15T02:33:18.579Z,9.50
2019-03-15T02:35:59.242Z,10.30
2019-03-15T02:38:40.148Z,10.70
2019-03-15T02:41:21.067Z,10.70
2019-03-15T02:44:02.135Z,10.00
2019-03-15T02:46:43.141Z,10.90
2019-03-15T02:49:23.762Z,10.50
2019-03-15T02:52:04.744Z,9.80
2019-03-15T02:54:45.157Z,10.00
2019-03-15T02:57:25.915Z,10.40
2019-03-15T03:00:06.465Z,9.40
2019-03-15T03:02:46.903Z,9.80
2019-03-15T03:05:27.570Z,9.90
2019-03-15T03:08:08.325Z,9.20
2019-03-15T03:10:49.430Z,8.50
2019-03-15T03:13:30.727Z,9.60
2019-03-15T03:16:11.747Z,9.60
2019-03-15T03:18:52.798Z,9.30
2019-03-15T03:21:33.807Z,9.30
2019-03-15T03:24:14.667Z,9.70
2019-03-15T03:26:55.458Z,10.30
2019-03-15T03:29:36.073Z,9.60
2019-03-15T03:32:04.506Z,9.30
2019-03-15T03:34:52.278Z,9.50
2019-03-15T03:43:14.944Z,9.20
2019-03-15T03:46:02.730Z,8.60
2019-03-15T03:48:50.497Z,8.50
2019-03-15T03:51:38.278Z,8.80
2019-03-15T03:54:26.411Z,8.70
2019-03-15T03:57:14.185Z,8.50
2019-03-15T04:00:01.985Z,8.20
2019-03-15T04:02:53.090Z,8.30
2019-03-15T04:05:32.210Z,8.40
2019-03-15T04:08:12.961Z,8.20
2019-03-15T04:10:54.118Z,8.60
2019-03-15T04:13:35.205Z,9.30
2019-03-15T04:16:16.093Z,9.20
2019-03-15T04:18:57.274Z,8.80
2019-03-15T04:21:37.722Z,8.70
2019-03-15T04:24:18.831Z,8.50
2019-03-15T04:26:59.989Z,8.50
2019-03-15T04:29:40.990Z,8.40
2019-03-15T04:32:21.942Z,8.10
2019-03-15T04:35:02.786Z,8.30
2019-03-15T04:37:43.818Z,8.40
2019-03-15T04:40:24.658Z,8.60
2019-03-15T04:43:05.397Z,8.30
2019-03-15T04:45:46.235Z,8.30
2019-03-15T04:48:26.969Z,8.20
2019-03-15T04:51:07.917Z,8.00
2019-03-15T04:53:48.751Z,8.10
2019-03-15T04:56:29.758Z,8.10
2019-03-15T04:59:10.935Z,8.20
2019-03-15T05:01:51.981Z,8.20
2019-03-15T05:04:32.723Z,8.30
2019-03-15T05:07:13.241Z,8.20
2019-03-15T05:09:54.031Z,7.90
2019-03-15T05:12:34.374Z,8.00
2019-03-15T05:15:15.045Z,7.90
2019-03-15T05:17:56.025Z,8.00
2019-03-15T05:20:36.968Z,8.10
2019-03-15T05:23:17.174Z,8.10
2019-03-15T05:25:58.098Z,8.20
2019-03-15T05:28:39.023Z,8.30
2019-03-15T05:31:19.893Z,8.20
2019-03-15T05:34:00.706Z,8.10
2019-03-15T05:36:41.778Z,8.10
2019-03-15T05:39:23.049Z,8.00
2019-03-15T05:42:03.572Z,7.90
2019-03-15T05:44:44.209Z,8.00
2019-03-15T05:47:25.329Z,8.00
2019-03-15T05:50:06.225Z,8.10
2019-03-15T05:52:46.917Z,8.00
2019-03-15T05:55:27.994Z,8.10
2019-03-15T05:58:08.828Z,8.10
2019-03-15T06:00:49.166Z,8.00
2019-03-15T06:03:29.981Z,8.00
2019-03-15T06:06:11.145Z,8.10
2019-03-15T06:08:51.773Z,8.20
2019-03-15T06:11:32.593Z,8.20
2019-03-15T06:14:13.607Z,8.20
2019-03-15T06:16:54.262Z,8.20
2019-03-15T06:19:34.780Z,8.00
2019-03-15T06:22:15.198Z,8.10
2019-03-15T06:24:55.808Z,7.90
2019-03-15T06:27:36.566Z,8.10
2019-03-15T06:30:17.553Z,8.10
2019-03-15T06:32:58.034Z,8.00
2019-03-15T06:35:38.755Z,7.90
2019-03-15T06:38:19.227Z,7.90
2019-03-15T06:41:00.583Z,8.00
2019-03-15T06:43:41.400Z,8.10
2019-03-15T06:46:21.871Z,7.90
2019-03-15T06:49:02.418Z,8.00
2019-03-15T06:51:43.295Z,8.10
2019-03-15T06:54:24.290Z,8.00
2019-03-15T06:57:04.762Z,8.00
2019-03-15T06:59:45.732Z,7.90
2019-03-15T07:02:26.265Z,8.10
2019-03-15T07:05:06.811Z,8.00
2019-03-15T07:07:47.836Z,8.20
2019-03-15T07:10:28.758Z,8.20
2019-03-15T07:13:09.780Z,8.30
2019-03-15T07:15:50.265Z,8.30
2019-03-15T07:18:31.137Z,8.10
2019-03-15T07:21:12.391Z,8.30
2019-03-15T07:23:53.394Z,8.40
2019-03-15T07:26:34.307Z,8.20
2019-03-15T07:29:14.980Z,8.30
2019-03-15T07:31:55.882Z,8.10
2019-03-15T07:34:37.012Z,8.00
2019-03-15T07:37:17.637Z,8.20
2019-03-15T07:39:57.891Z,8.20
2019-03-15T07:42:38.600Z,8.20
2019-03-15T07:45:19.869Z,8.10
2019-03-15T07:48:00.342Z,8.40
2019-03-15T07:50:41.141Z,8.30
2019-03-15T07:53:21.755Z,8.20
2019-03-15T07:56:02.251Z,8.60
2019-03-15T07:58:43.052Z,8.50
2019-03-15T08:01:24.218Z,8.50
2019-03-15T08:04:16.163Z,8.30
2019-03-15T08:06:47.822Z,8.20
2019-03-15T08:09:28.725Z,8.30
2019-03-15T08:12:09.181Z,8.50
2019-03-15T08:14:49.838Z,8.50
2019-03-15T08:17:30.678Z,8.50
2019-03-15T08:20:11.474Z,8.50
2019-03-15T08:22:52.545Z,8.60
2019-03-15T08:25:33.293Z,8.50
2019-03-15T08:28:13.942Z,8.70
2019-03-15T08:30:54.489Z,8.70
2019-03-15T08:33:35.346Z,8.50
2019-03-15T08:36:16.246Z,8.40
2019-03-15T08:38:57.639Z,8.50
2019-03-15T08:41:38.336Z,8.60
2019-03-15T08:44:19.309Z,8.50
2019-03-15T08:47:00.354Z,8.70
2019-03-15T08:49:40.563Z,8.60
2019-03-15T08:52:21.269Z,8.50
2019-03-15T08:55:05.373Z,8.50
2019-03-15T08:57:45.249Z,8.60
2019-03-15T09:00:26.365Z,8.70
2019-03-15T09:03:06.786Z,8.60
2019-03-15T09:05:47.905Z,8.70
2019-03-15T09:08:29.191Z,8.70
2019-03-15T09:11:10.018Z,8.70
2019-03-15T09:13:50.738Z,8.60
2019-03-15T09:16:31.138Z,8.60
2019-03-15T09:19:12.058Z,8.60
2019-03-15T09:21:52.617Z,8.60
2019-03-15T09:24:33.673Z,8.60
2019-03-15T09:27:02.123Z,8.70
2019-03-15T09:29:49.887Z,8.70
2019-03-15T09:32:37.927Z,8.70
2019-03-15T09:35:25.711Z,8.80
2019-03-15T09:38:13.725Z,8.90
2019-03-15T09:41:01.534Z,9.00
2019-03-15T09:43:49.350Z,9.00
2019-03-15T09:46:37.128Z,8.80
2019-03-15T09:49:24.919Z,8.90
2019-03-15T09:52:12.723Z,9.00
2019-03-15T09:55:00.508Z,9.00
2019-03-15T09:57:48.264Z,9.10
2019-03-15T10:00:36.073Z,9.20
2019-03-15T10:03:23.841Z,9.20
2019-03-15T10:06:15.713Z,9.20
2019-03-15T10:09:01.427Z,9.30
2019-03-15T10:11:49.190Z,9.30
2019-03-15T10:14:30.655Z,9.50
2019-03-15T10:17:11.351Z,9.20
2019-03-15T10:19:52.458Z,9.20
2019-03-15T10:22:33.205Z,9.20
2019-03-15T10:25:13.865Z,9.30
2019-03-15T10:27:54.502Z,9.30
2019-03-15T10:30:35.101Z,9.30
2019-03-15T10:33:15.676Z,9.40
2019-03-15T10:35:56.305Z,9.40
2019-03-15T10:38:37.385Z,9.20
2019-03-15T10:41:18.235Z,9.20
2019-03-15T10:43:59.194Z,9.20
2019-03-15T10:46:40.497Z,9.20
2019-03-15T10:49:21.610Z,9.20
2019-03-15T10:52:02.388Z,9.30
2019-03-15T10:54:43.163Z,9.30
2019-03-15T10:57:23.394Z,9.30
2019-03-15T11:00:04.489Z,9.30
2019-03-15T11:02:44.947Z,9.20
2019-03-15T11:05:26.115Z,9.30
2019-03-15T11:08:07.006Z,9.20
2019-03-15T11:10:47.468Z,9.10
2019-03-15T11:13:28.373Z,9.00
2019-03-15T11:16:09.143Z,8.90
2019-03-15T11:18:49.614Z,8.90
2019-03-15T11:21:30.266Z,9.00
2019-03-15T11:24:11.055Z,9.00
2019-03-15T11:26:51.738Z,9.00
2019-03-15T11:29:32.175Z,9.10
2019-03-15T11:32:12.791Z,8.90
2019-03-15T11:34:53.641Z,8.80
2019-03-15T11:37:34.338Z,8.70
2019-03-15T11:40:14.961Z,8.70
2019-03-15T11:42:55.525Z,8.70
2019-03-15T11:45:36.550Z,8.70
2019-03-15T11:54:04.793Z,8.90
2019-03-15T11:56:52.587Z,8.60
2019-03-15T11:59:40.362Z,8.50
2019-03-15T12:02:28.122Z,8.60
2019-03-15T12:05:16.005Z,8.50
2019-03-15T12:08:03.838Z,8.60
2019-03-15T12:10:51.598Z,8.60
2019-03-15T12:13:39.382Z,8.60
2019-03-15T12:16:27.173Z,8.50
2019-03-15T12:19:14.957Z,8.60
2019-03-15T12:22:06.577Z,8.80
2019-03-15T12:24:52.244Z,8.80
2019-03-15T12:27:40.021Z,8.60
2019-03-15T12:30:27.806Z,8.60
2019-03-15T12:33:15.570Z,8.70
2019-03-15T12:36:03.622Z,8.60
2019-03-15T12:38:53.138Z,8.60
2019-03-15T12:41:40.913Z,8.70
2019-03-15T12:44:28.682Z,8.80
2019-03-15T12:47:16.774Z,8.90
2019-03-15T12:49:57.878Z,9.00
2019-03-15T12:52:47.258Z,9.10
2019-03-15T12:55:20.673Z,9.10
2019-03-15T12:58:01.575Z,9.10
2019-03-15T13:00:42.158Z,9.20
2019-03-15T13:03:23.004Z,9.60
2019-03-15T13:06:03.575Z,9.60
2019-03-15T13:08:47.270Z,9.40
2019-03-15T13:11:27.228Z,9.30
2019-03-15T13:14:07.609Z,9.40
2019-03-15T13:16:51.301Z,9.40
2019-03-15T13:19:32.390Z,9.50
2019-03-15T13:22:13.474Z,9.60
2019-03-15T13:24:54.297Z,9.70
2019-03-15T13:27:35.047Z,10.00
2019-03-15T13:30:15.993Z,10.20
2019-03-15T13:32:56.953Z,10.10
2019-03-15T13:35:37.758Z,10.30
2019-03-15T13:38:19.033Z,10.20
2019-03-15T13:40:59.870Z,10.10
2019-03-15T13:43:40.814Z,10.30
2019-03-15T13:46:21.983Z,10.20
2019-03-15T13:49:02.654Z,10.30
2019-03-15T13:51:43.302Z,10.50
2019-03-15T13:54:24.076Z,10.50
2019-03-15T13:57:04.942Z,10.70
2019-03-15T13:59:45.957Z,10.60
2019-03-15T14:02:26.591Z,10.60
2019-03-15T14:05:07.447Z,10.70
2019-03-15T14:07:48.307Z,10.80
2019-03-15T14:10:29.172Z,10.90
2019-03-15T14:13:12.017Z,11.10
2019-03-15T14:15:52.288Z,11.30
2019-03-15T14:18:33.057Z,11.10
2019-03-15T14:21:16.877Z,11.30
2019-03-15T14:23:57.528Z,11.30
2019-03-15T14:26:38.114Z,11.70
2019-03-15T14:29:19.204Z,11.60
2019-03-15T14:31:59.575Z,11.70
2019-03-15T14:34:40.111Z,12.00
2019-03-15T14:37:20.659Z,11.80
2019-03-15T14:40:01.162Z,11.80
2019-03-15T14:42:41.674Z,11.90
2019-03-15T14:45:22.408Z,11.90
2019-03-15T14:48:03.022Z,11.80
2019-03-15T14:50:43.893Z,12.10
2019-03-15T14:53:24.637Z,12.40
2019-03-15T14:56:05.594Z,12.20
2019-03-15T14:58:46.208Z,12.30
2019-03-15T15:01:27.176Z,12.50
2019-03-15T15:04:08.414Z,12.50
2019-03-15T15:06:49.214Z,13.20
2019-03-15T15:09:30.182Z,12.50
2019-03-15T15:12:10.783Z,12.60
2019-03-15T15:14:51.766Z,12.90
2019-03-15T15:17:32.203Z,11.90
2019-03-15T15:20:13.226Z,12.60
2019-03-15T15:22:55.265Z,13.10
2019-03-15T15:25:35.690Z,13.20
2019-03-15T15:28:16.567Z,13.10
2019-03-15T15:30:57.562Z,12.10
2019-03-15T15:33:38.505Z,12.60
2019-03-15T15:36:19.245Z,12.00
2019-03-15T15:39:00.048Z,12.40
2019-03-15T15:41:41.022Z,11.50
2019-03-15T15:44:22.038Z,12.60
2019-03-15T15:47:03.095Z,12.30
2019-03-15T15:49:43.839Z,12.60
2019-03-15T15:52:24.466Z,12.50
2019-03-15T15:55:05.666Z,13.10
2019-03-15T15:57:46.408Z,12.60
2019-03-15T16:00:27.183Z,12.70
2019-03-15T16:03:07.833Z,12.50
2019-03-15T16:05:48.964Z,12.30
2019-03-15T16:08:29.352Z,12.30
2019-03-15T16:11:10.158Z,11.40
2019-03-15T16:13:50.909Z,11.90
2019-03-15T16:16:31.647Z,11.50
2019-03-15T16:19:12.807Z,11.10
2019-03-15T16:21:53.566Z,12.00
2019-03-15T16:24:34.499Z,12.50
2019-03-15T16:27:15.606Z,12.50
2019-03-15T16:29:56.308Z,11.90
2019-03-15T16:32:36.919Z,11.90
2019-03-15T16:35:17.648Z,11.50
2019-03-15T16:37:58.403Z,11.10
2019-03-15T16:40:38.964Z,12.00
2019-03-15T16:43:07.478Z,11.70
2019-03-15T16:45:55.282Z,11.60
2019-03-15T16:48:43.093Z,11.60
2019-03-15T16:51:30.886Z,11.70
2019-03-15T16:53:59.442Z,13.10
2019-03-15T16:56:47.209Z,12.70
2019-03-15T17:05:10.914Z,12.50
2019-03-15T17:07:58.992Z,11.20
2019-03-15T17:10:46.766Z,10.90
2019-03-15T17:13:34.564Z,12.30
2019-03-15T17:16:22.707Z,12.20
2019-03-15T17:19:10.493Z,11.50
2019-03-15T17:21:58.303Z,11.40
2019-03-15T17:24:46.411Z,11.30
2019-03-15T17:27:34.196Z,12.80
2019-03-15T17:30:21.989Z,12.60
2019-03-15T17:33:05.899Z,12.50
2019-03-15T17:35:45.360Z,12.10
2019-03-15T17:38:26.247Z,12.70
2019-03-15T17:41:06.906Z,12.40
2019-03-15T17:43:47.859Z,11.50
2019-03-15T17:46:28.734Z,11.90
2019-03-15T17:49:09.755Z,11.70
2019-03-15T17:51:50.367Z,10.50
2019-03-15T17:54:31.245Z,11.20
2019-03-15T17:57:12.160Z,11.00
2019-03-15T17:59:52.565Z,10.40
2019-03-15T18:02:33.209Z,11.10
2019-03-15T18:05:13.486Z,11.80
2019-03-15T18:07:53.946Z,11.70
2019-03-15T18:10:34.751Z,10.80
2019-03-15T18:13:15.936Z,10.80
2019-03-15T18:15:56.736Z,9.80
2019-03-15T18:18:37.438Z,10.80
2019-03-15T18:21:18.230Z,10.60
2019-03-15T18:23:58.723Z,11.20
2019-03-15T18:26:39.729Z,11.70
2019-03-15T18:29:26.216Z,10.90
2019-03-15T18:32:03.283Z,10.80
2019-03-15T18:34:44.155Z,10.20
2019-03-15T18:37:24.751Z,10.40
2019-03-15T18:40:05.798Z,10.40
2019-03-15T18:42:46.670Z,10.80
2019-03-15T18:45:27.518Z,10.50
2019-03-15T18:48:08.050Z,10.80
2019-03-15T18:50:48.718Z,10.90
2019-03-15T18:53:29.729Z,10.10
2019-03-15T18:56:10.826Z,10.70
2019-03-15T18:58:51.643Z,11.50
2019-03-15T19:01:32.301Z,11.10
2019-03-15T19:04:12.787Z,10.40
2019-03-15T19:06:53.594Z,10.90
2019-03-15T19:09:34.134Z,10.20
2019-03-15T19:12:14.566Z,10.30
2019-03-15T19:14:55.149Z,10.70
2019-03-15T19:17:35.863Z,10.70
2019-03-15T19:20:16.266Z,10.40
2019-03-15T19:22:57.201Z,11.80
2019-03-15T19:25:38.179Z,11.10
2019-03-15T19:28:19.252Z,11.30
2019-03-15T19:31:00.455Z,11.10
2019-03-15T19:33:40.820Z,11.10
2019-03-15T19:36:21.983Z,10.80
2019-03-15T19:39:02.713Z,11.00
2019-03-15T19:41:43.470Z,10.10
2019-03-15T19:44:23.955Z,11.40
2019-03-15T19:47:04.427Z,10.90
2019-03-15T19:49:45.444Z,10.90
2019-03-15T19:52:26.230Z,10.20
2019-03-15T19:55:06.687Z,10.40
2019-03-15T19:57:47.679Z,10.80
2019-03-15T20:00:28.582Z,10.40
2019-03-15T20:03:09.336Z,11.00
2019-03-15T20:05:50.093Z,10.30
2019-03-15T20:08:31.270Z,10.90
2019-03-15T20:11:12.174Z,11.50
2019-03-15T20:13:52.770Z,11.00
2019-03-15T20:16:33.394Z,10.70
2019-03-15T20:19:13.926Z,10.80
2019-03-15T20:21:54.689Z,10.50
2019-03-15T20:24:36.637Z,10.30
2019-03-15T20:27:17.309Z,9.80
2019-03-15T20:29:58.026Z,10.40
2019-03-15T20:32:38.771Z,11.10
2019-03-15T20:35:28.387Z,11.90
2019-03-15T20:38:16.403Z,10.90
2019-03-15T20:41:06.307Z,10.60
2019-03-15T20:43:54.101Z,10.80
2019-03-15T20:46:42.008Z,10.50
2019-03-15T20:49:29.785Z,11.10
2019-03-15T20:52:17.994Z,10.70
2019-03-15T20:55:06.253Z,11.00
2019-03-15T20:57:54.035Z,9.80
2019-03-15T21:00:42.182Z,9.80
2019-03-15T21:03:30.215Z,11.10
2019-03-15T21:06:18.094Z,10.70
2019-03-15T21:09:06.918Z,10.20
2019-03-15T21:11:54.722Z,11.50
2019-03-15T21:14:42.514Z,10.40
2019-03-15T21:17:30.565Z,11.20
2019-03-15T21:20:22.197Z,11.10
2019-03-15T21:23:08.735Z,10.00
2019-03-15T21:25:49.685Z,10.40
2019-03-15T21:28:30.503Z,10.10
2019-03-15T21:31:11.505Z,10.20
2019-03-15T21:33:52.253Z,10.60
2019-03-15T21:36:33.299Z,10.70
2019-03-15T21:39:14.018Z,10.60
2019-03-15T21:41:54.785Z,10.90
2019-03-15T21:44:35.887Z,10.60
2019-03-15T21:47:16.919Z,9.90
2019-03-15T21:49:57.858Z,10.00
2019-03-15T21:52:38.606Z,10.70
2019-03-15T21:55:19.786Z,10.70
2019-03-15T21:58:00.707Z,10.60
2019-03-15T22:00:41.505Z,11.00
2019-03-15T22:03:22.329Z,11.10
2019-03-15T22:06:02.847Z,9.70
2019-03-15T22:08:43.698Z,10.50
2019-03-15T22:11:24.294Z,10.10
2019-03-15T22:14:05.336Z,9.90
2019-03-15T22:16:46.466Z,10.40
2019-03-15T22:19:27.763Z,9.90
2019-03-15T22:22:08.324Z,10.00
2019-03-15T22:24:48.925Z,10.80
2019-03-15T22:27:29.458Z,11.40
2019-03-15T22:30:10.400Z,11.80
2019-03-15T22:32:50.977Z,10.20
2019-03-15T22:35:32.042Z,10.50
2019-03-15T22:38:25.217Z,10.20
2019-03-15T22:40:55.772Z,10.00
2019-03-15T22:43:36.671Z,10.50
2019-03-15T22:46:17.292Z,10.20
2019-03-15T22:48:58.582Z,10.40
2019-03-15T22:51:39.365Z,9.70
2019-03-15T22:54:20.294Z,10.80
2019-03-15T22:57:01.147Z,10.10
2019-03-15T22:59:42.174Z,9.60
2019-03-15T23:02:22.997Z,9.40
2019-03-15T23:05:03.720Z,9.20
2019-03-15T23:07:44.299Z,9.60
2019-03-15T23:10:25.200Z,10.10
2019-03-15T23:13:06.043Z,10.00
2019-03-15T23:15:46.986Z,9.70
2019-03-15T23:18:27.442Z,10.50
2019-03-15T23:21:08.255Z,10.40
2019-03-15T23:23:48.682Z,10.10
2019-03-15T23:26:29.333Z,11.10
2019-03-15T23:29:10.274Z,10.50
2019-03-15T23:31:51.025Z,10.30
2019-03-15T23:34:32.056Z,9.60
2019-03-15T23:37:12.713Z,10.30
2019-03-15T23:39:54.038Z,10.30
2019-03-15T23:42:34.754Z,9.40
2019-03-15T23:45:15.383Z,9.40
2019-03-15T23:47:55.891Z,10.30
2019-03-15T23:50:36.919Z,10.70
2019-03-15T23:53:17.242Z,9.60
2019-03-15T23:55:58.162Z,10.70
2019-03-15T23:58:39.280Z,11.30
